Latest Coastal Weather Observations for East Sale

IDV60701

Issued at 1:33 am EST Monday 26 September 2016 (issued every 10 minutes, with the page automatically refreshed every 10 minutes)

About coastal observations | Map of coastal stations | Coastal observations for VIC | Marine services | Other Formats
Station Details ID: 085072 Name: EAST SALE AIRPORT Lat: -38.12 Lon: 147.13 Height: 4.6 m
Data from the previous 72 hours. | See also: Recent months at East Sale
Date/Time
EST
Temp
°C
Wind Pressure Rain since
9am
mm
Weather Cloud Vis
km
Sea
Height
m
Swell
Dir  Spd
kts
Gust
kts
hPa Trend Height
m
Period
s
Dir
26/01:00am 6.0 NW 7 7 1014.2 - 0.0 - - 10 - - - -
26/12:30am 6.1 WNW 7 7 1014.5 - 0.0 - - 10 - - - -
26/12:00am 6.1 WNW 6 8 1014.5 R 0.0 - Mostly cloudy 10 - - - -
 
Date/Time
EST
Temp
°C
Wind Pressure Rain since
9am
mm
Weather Cloud Vis
km
Sea
Height
m
Swell
Dir  Spd
kts
Gust
kts
hPa Trend Height
m
Period
s
Dir
25/11:30pm 6.8 W 7 8 1014.5 - 0.0 - - 10 - - - -
25/11:00pm 6.6 W 7 8 1014.5 - 0.0 - Partly cloudy 10 - - - -
25/10:30pm 7.4 WSW 5 7 1014.5 - 0.0 - Cloudy 10 - - - -
25/10:00pm 7.2 W 8 11 1014.3 - 0.0 - Cloudy 10 - - - -
25/09:30pm 7.3 WNW 6 7 1014.3 - 0.0 - Cloudy 10 - - - -
25/09:00pm 7.2 W 7 8 1014.1 R 0.0 - Partly cloudy 10 - - - -
25/08:30pm 7.3 WNW 8 8 1013.6 - 0.0 - - 10 - - - -
25/08:00pm 8.2 W 7 9 1013.2 - 0.0 - - 10 - - - -
25/07:30pm 8.8 W 9 11 1012.9 - 0.0 - - 10 - - - -
25/07:00pm 9.3 W 9 11 1012.5 - 0.0 - - 10 - - - -
25/06:30pm 10.3 WNW 11 12 1011.9 - 0.0 - - 10 - - - -
25/06:00pm 11.5 W 13 18 1011.6 R 0.0 - - 10 - - - -
25/05:30pm 12.4 WSW 15 20 1011.1 - 0.0 - - 10 - - - -
25/05:00pm 12.8 WSW 17 24 1010.8 - 0.0 - - 10 - - - -
25/04:30pm 13.6 W 17 23 1010.5 - 0.0 - - 10 - - - -
25/04:00pm 14.1 W 18 24 1010.2 - 0.0 - - 10 - - - -
25/03:30pm 14.5 WSW 16 21 1010.1 - 0.0 - - 10 - - - -
25/03:00pm 14.4 WSW 19 27 1009.9 R 0.0 - Mostly clear 10 - - - -
25/02:30pm 14.8 WSW 19 28 1009.9 - 0.0 - Partly cloudy 10 - - - -
25/02:00pm 14.5 SW 20 27 1009.9 - 0.0 - Partly cloudy 10 - - - -
25/01:32pm 14.1 WSW 17 28 1009.8 - 0.0 - Partly cloudy 10 - - - -
25/01:30pm 14.1 WSW 17 25 1009.8 - 0.0 - Partly cloudy 10 - - - -
25/01:00pm 13.8 SW 19 26 1009.7 - 0.0 - Partly cloudy 10 - - - -
25/12:30pm 15.3 WSW 17 24 1009.6 - 0.0 - Cloudy 10 - - - -
25/12:00pm 14.4 WSW 18 24 1009.5 R 0.0 - Mostly cloudy 10 - - - -
25/11:30am 14.8 W 19 26 1009.5 - 0.0 - Partly cloudy 10 - - - -
25/11:00am 14.1 W 17 24 1009.5 - 0.0 - Partly cloudy 10 - - - -
25/10:30am 14.0 WSW 16 22 1009.3 - 0.0 - Partly cloudy 10 - - - -
25/10:00am 13.2 WSW 13 19 1009.3 - 0.0 - Partly cloudy 10 - - - -
25/09:30am 13.1 W 15 22 1009.1 - 0.0 - Partly cloudy 10 - - - -
25/09:15am 13.1 W 15 25 1009.0 - 0.0 - Partly cloudy 10 - - - -
25/09:00am 13.2 W 17 24 1008.9 R 0.0 - Mostly cloudy 10 - - - -
25/08:30am 12.4 W 13 19 1008.5 - 0.0 - Cloudy 10 - - - -
25/08:00am 12.1 W 12 16 1008.2 - 0.0 - Cloudy 10 - - - -
25/07:30am 11.9 W 12 16 1007.8 - 0.0 - Partly cloudy 10 - - - -
25/07:00am 11.7 W 11 15 1007.5 - 0.0 - Cloudy 10 - - - -
25/06:30am 11.4 W 13 19 1007.0 - 0.0 - Partly cloudy 10 - - - -
25/06:00am 12.1 W 17 23 1006.6 R 0.0 - Cloudy 10 - - - -
25/05:59am 12.1 W 17 23 1006.6 - 0.0 - Partly cloudy 10 - - - -
25/05:30am 12.4 WSW 9 13 1006.3 - 0.0 - Partly cloudy 10 - - - -
25/05:00am 12.1 WSW 8 11 1005.9 - 0.0 - Partly cloudy 10 - - - -
25/04:30am 11.8 SW 7 9 1005.8 - 0.0 - Cloudy 10 - - - -
25/04:00am 12.3 WSW 7 9 1005.6 - 0.0 - Cloudy 10 - - - -
25/03:30am 12.7 W 8 11 1005.7 - 0.0 - Cloudy 10 - - - -
25/03:00am 12.5 WNW 6 8 1005.9 R 0.0 - Mostly cloudy 10 - - - -
25/02:30am 12.7 WNW 5 7 1005.9 - 0.0 - Cloudy 10 - - - -
25/02:00am 12.7 WSW 7 8 1006.0 - 0.0 - Cloudy 10 - - - -
25/01:30am 13.0 WSW 5 8 1006.1 - 0.0 - Cloudy 10 - - - -
25/01:00am 13.3 WSW 4 5 1006.2 - 0.0 - Cloudy 10 - - - -
25/12:30am 13.1 NW 5 7 1006.4 - 0.0 - Partly cloudy 10 - - - -
25/12:00am 12.6 NW 5 6 1006.5 R 0.0 - Cloudy 10 - - - -
 
Date/Time
EST
Temp
°C
Wind Pressure Rain since
9am
mm
Weather Cloud Vis
km
Sea
Height
m
Swell
Dir  Spd
kts
Gust
kts
hPa Trend Height
m
Period
s
Dir
24/11:30pm 12.9 NW 6 7 1006.3 - 0.0 - Partly cloudy 10 - - - -
24/11:00pm 13.0 NNW 6 7 1006.3 - 0.0 - Cloudy 10 - - - -
24/10:30pm 12.8 NW 4 5 1006.1 - 0.0 - Partly cloudy 10 - - - -
24/10:00pm 13.2 W 5 5 1006.4 - 0.0 - Partly cloudy 10 - - - -
24/09:30pm 13.4 SW 4 5 1006.3 - 0.0 - Partly cloudy 10 - - - -
24/09:00pm 13.2 SSW 5 6 1006.3 F 0.0 - Mostly cloudy 10 - - - -
24/08:30pm 13.4 SSW 6 7 1006.4 - 0.0 - Partly cloudy 10 - - - -
24/08:00pm 13.4 SSW 6 9 1006.5 - 0.0 - Partly cloudy 10 - - - -
24/07:30pm 14.0 SSW 6 7 1006.3 - 0.0 - Partly cloudy 10 - - - -
24/07:00pm 14.8 S 6 10 1006.1 - 0.0 - Partly cloudy 10 - - - -
24/06:30pm 15.1 ESE 8 10 1005.7 - 0.0 - Partly cloudy 10 - - - -
24/06:00pm 15.7 ESE 6 8 1005.8 F 0.0 - Mostly cloudy 10 - - - -
24/05:30pm 16.5 E 8 11 1005.7 - 0.0 - Partly cloudy 10 - - - -
24/05:00pm 16.7 SE 4 5 1005.6 - 0.0 - Partly cloudy 10 - - - -
24/04:30pm 17.4 E 8 10 1005.4 - 0.0 - Partly cloudy 10 - - - -
24/04:00pm 18.2 ENE 12 15 1005.5 - 0.0 - Partly cloudy 10 - - - -
24/03:30pm 18.0 E 11 13 1005.5 - 0.0 - Cloudy 10 - - - -
24/03:00pm 19.1 E 10 13 1005.6 F 0.0 - Mostly clear 10 - - - -
24/02:30pm 19.8 E 11 13 1005.5 - 0.0 - - 10 - - - -
24/02:00pm 20.2 E 14 16 1005.2 - 0.0 - - 10 - - - -
24/01:30pm 20.0 E 7 10 1005.9 - 0.0 - - 10 - - - -
24/01:00pm 19.5 ESE 8 10 1006.6 - 0.0 - - 10 - - - -
24/12:30pm 18.9 ESE 7 10 1007.3 - 0.0 - - 10 - - - -
24/12:00pm 18.0 ESE 4 6 1007.8 F 0.0 - - 10 - - - -
24/11:30am 17.5 ESE 4 6 1008.3 - 0.0 - - 10 - - - -
24/11:00am 15.9 E 4 6 1008.8 - 0.0 - - 10 - - - -
24/10:30am 14.8 E 3 5 1009.2 - 0.0 - - 10 - - - -
24/10:00am 13.3 SW 3 4 1009.6 - 0.0 - - 10 - - - -
24/09:30am 11.7 S 2 4 1010.3 - 0.0 - - 10 - - - -
24/09:17am 11.3 CALM 0 2 1010.6 - 0.0 - Partly cloudy 10 - - - -
24/09:00am 10.3 NW 1 3 1010.8 F 0.0 - Partly cloudy 10 - - - -
24/08:59am 10.2 NW 1 3 1010.8 - 0.0 - Partly cloudy 10 - - - -
24/08:30am 9.5 WSW 1 3 1010.9 - 0.0 - Cloudy 0.8 - - - -
24/08:00am 8.7 W 3 4 1010.9 - 0.0 - Cloudy 0.2 - - - -
24/07:30am 8.1 WNW 5 6 1011.2 - 0.0 - Cloudy 0.5 - - - -
24/07:00am 8.0 WNW 5 7 1011.2 - 0.0 - Partly cloudy 10 - - - -
24/06:30am 7.5 NNW 4 6 1011.2 - 0.0 - Cloudy 0.1 - - - -
24/06:00am 7.0 NNW 3 4 1011.0 F 0.0 - Cloudy 0.1 - - - -
24/05:30am 6.6 NNW 3 5 1011.0 - 0.0 - Cloudy 0.1 - - - -
24/05:00am 6.6 NNW 3 5 1010.8 - 0.0 - Cloudy 0.1 - - - -
24/04:30am 6.7 WNW 5 5 1011.0 - 0.0 - Cloudy 1 - - - -
24/04:00am 6.3 WNW 5 6 1011.1 - 0.0 - Cloudy 0.1 - - - -
24/03:30am 6.2 WNW 6 6 1011.3 - 0.0 - Cloudy 0.2 - - - -
24/03:00am 6.3 NW 4 6 1011.4 F 0.0 - Cloudy 0.1 - - - -
24/02:30am 6.2 NW 5 6 1011.7 - 0.0 - Cloudy 0.1 - - - -
24/02:00am 7.5 NNW 4 5 1011.9 - 0.0 - Partly cloudy 0.2 - - - -
24/01:52am 7.6 NNW 4 5 1011.9 - 0.0 - Partly cloudy 0.2 - - - -
24/01:42am 8.0 WNW 1 5 1012.0 - 0.0 - Partly cloudy 6 - - - -
24/01:30am 8.7 CALM 0 0 1012.0 - 0.0 - - 10 - - - -
24/01:19am 8.2 CALM 0 3 1012.2 - 0.0 - Partly cloudy 10 - - - -
24/01:00am 7.9 SE 2 3 1012.4 - 0.0 - - 1 - - - -
24/12:42am 8.1 SE 3 4 1012.3 - 0.0 - Partly cloudy 10 - - - -
24/12:30am 8.3 W 2 3 1012.6 - 0.0 - Partly cloudy 1 - - - -
24/12:00am 7.5 WNW 5 5 1012.8 F 0.0 - Cloudy 0.5 - - - -
 
Date/Time
EST
Temp
°C
Wind Pressure Rain since
9am
mm
Weather Cloud Vis
km
Sea
Height
m
Swell
Dir  Spd
kts
Gust
kts
hPa Trend Height
m
Period
s
Dir
23/11:36pm 8.0 NW 4 4 1012.9 - 0.0 - Partly cloudy 0.2 - - - -
23/11:30pm 7.4 NW 4 5 1012.9 - 0.0 - Partly cloudy 4 - - - -
23/11:00pm 8.8 CALM 0 0 1013.0 - 0.0 - - 2 - - - -
23/10:30pm 9.4 SE 2 3 1013.2 - 0.0 - - 4 - - - -
23/10:25pm 9.5 SE 3 4 1013.3 - 0.0 - - 6 - - - -
23/10:15pm 9.7 E 1 3 1013.3 - 0.0 - Partly cloudy 10 - - - -
23/10:00pm 10.1 CALM 0 2 1013.4 - 0.0 - Partly cloudy 4 - - - -
23/09:53pm 10.4 ESE 2 4 1013.4 - 0.0 - Partly cloudy 5 - - - -
23/09:30pm 10.0 E 3 4 1013.5 - 0.0 - Partly cloudy 10 - - - -
23/09:00pm 10.5 ENE 6 7 1013.6 F 0.0 - - 10 - - - -
23/08:30pm 10.7 E 7 8 1013.8 - 0.0 - - 10 - - - -
23/08:00pm 10.6 E 7 8 1013.8 - 0.0 - - 10 - - - -
23/07:30pm 11.0 E 7 8 1013.7 - 0.0 - - 10 - - - -
23/07:00pm 11.1 E 8 9 1013.6 - 0.0 - - 10 - - - -
23/06:30pm 11.9 E 9 11 1013.5 - 0.0 - - 10 - - - -
23/06:00pm 12.2 E 10 13 1013.3 F 0.0 - - 10 - - - -
23/05:30pm 13.2 ESE 11 14 1013.3 - 0.0 - - 10 - - - -
23/05:00pm 14.0 ESE 13 15 1013.5 - 0.0 - - 10 - - - -
23/04:30pm 14.9 ESE 11 14 1013.5 - 0.0 - - 10 - - - -
23/04:00pm 15.1 ESE 12 14 1013.5 - 0.0 - - 10 - - - -
23/03:30pm 15.7 ESE 12 14 1013.6 - 0.0 - - 10 - - - -
23/03:00pm 16.2 ESE 11 15 1014.0 F 0.0 - Mostly clear 10 - - - -
23/02:30pm 16.2 E 11 14 1014.3 - 0.0 - Mostly clear 10 - - - -
23/02:00pm 16.2 E 11 16 1014.7 - 0.0 - Mostly clear 10 - - - -
23/01:30pm 16.3 E 10 13 1015.0 - 0.0 - Partly cloudy 10 - - - -
23/01:00pm 16.3 E 9 13 1015.5 - 0.0 - Partly cloudy 10 - - - -
23/12:30pm 16.1 E 6 8 1016.1 - 0.0 - Partly cloudy 10 - - - -
23/12:00pm 16.3 N 4 6 1016.5 F 0.0 - Partly cloudy 10 - - - -
23/11:30am 16.5 NNE 6 8 1016.9 - 0.0 - Partly cloudy 10 - - - -
23/11:00am 15.2 NNE 4 6 1017.2 - 0.0 - Partly cloudy 10 - - - -
23/10:30am 14.4 WNW 3 6 1017.7 - 0.0 - Partly cloudy 10 - - - -
23/10:00am 13.9 W 5 7 1017.7 - 0.0 - Partly cloudy 10 - - - -
23/09:30am 13.5 W 5 8 1018.0 - 0.0 - Partly cloudy 10 - - - -
23/09:00am 12.7 W 5 10 1018.0 F 0.4 - Cloudy 10 - - - -
23/08:43am 12.2 WSW 5 6 1018.1 - 0.4 - Mostly cloudy 10 - - - -
23/08:30am 12.1 W 5 7 1018.1 - 0.4 - Mostly cloudy 10 - - - -
23/08:00am 11.5 W 6 8 1018.2 - 0.4 - Partly cloudy 10 - - - -
23/07:30am 10.9 WNW 6 7 1018.1 - 0.4 - Mostly clear 10 - - - -
23/07:00am 10.1 WNW 7 8 1018.1 - 0.4 - Partly cloudy 10 - - - -
23/06:30am 9.9 NW 7 8 1017.8 - 0.4 - Cloudy 10 - - - -
23/06:00am 9.6 NNW 5 6 1017.6 R 0.4 - Cloudy 10 - - - -
23/05:30am 9.8 WNW 6 6 1017.3 - 0.4 - Cloudy 10 - - - -
23/05:00am 10.0 WNW 7 9 1017.4 - 0.4 - Cloudy 10 - - - -
23/04:30am 10.0 WNW 8 10 1017.3 - 0.4 - Partly cloudy 10 - - - -
23/04:00am 10.0 WNW 7 8 1017.2 - 0.4 - Cloudy 10 - - - -
23/03:30am 10.0 WNW 9 11 1017.1 - 0.4 - Cloudy 10 - - - -
23/03:00am 10.0 W 9 11 1017.0 R 0.4 - Cloudy 10 - - - -
23/02:30am 10.1 W 8 11 1017.0 - 0.4 - Cloudy 10 - - - -
23/02:00am 10.0 W 9 11 1017.0 - 0.4 - Cloudy 10 - - - -

Other Formats:

Comma delimited format used in spreadsheet applications
http://www.bom.gov.au/fwo/IDV60701/IDV60701.94907.axf

JavaScript Object Notation format (JSON) in row-major order
http://www.bom.gov.au/fwo/IDV60701/IDV60701.94907.json